Terminal Aerodrome Forecast
Issued by NWS

Current Version | Previous Version | Graphics & Text | Print | Product List | Glossary On
Versions: 1 2 3 4 5 6 7 8 9 10 11 12 13
226
FTUS41 KPBZ 191722
TAFMGW
TAF
KMGW 191722Z 1918/2018 23009G16KT P6SM SCT250
     FM200000 22005KT P6SM SKC
     FM200600 22005KT P6SM SCT020
     FM201300 22003KT P6SM SCT250=

USA.gov is the U.S. government's official web portal to all federal, state and local government web resources and services.